sensor_id;sensor_type;location;lat;lon;timestamp;P1;durP1;ratioP1;P2;durP2;ratioP2
2850;SDS011;1433;49.976;8.342;2023-02-28T00:01:06;4.03;;;3.30;;
2850;SDS011;1433;49.976;8.342;2023-02-28T00:03:32;4.50;;;3.03;;
2850;SDS011;1433;49.976;8.342;2023-02-28T00:06:01;3.17;;;2.30;;
2850;SDS011;1433;49.976;8.342;2023-02-28T00:08:30;3.10;;;2.83;;
2850;SDS011;1433;49.976;8.342;2023-02-28T00:10:56;2.90;;;2.70;;
2850;SDS011;1433;49.976;8.342;2023-02-28T00:13:30;2.80;;;2.37;;
2850;SDS011;1433;49.976;8.342;2023-02-28T00:15:58;2.70;;;2.50;;
2850;SDS011;1433;49.976;8.342;2023-02-28T00:18:26;3.80;;;2.40;;
2850;SDS011;1433;49.976;8.342;2023-02-28T00:20:53;4.90;;;2.57;;
2850;SDS011;1433;49.976;8.342;2023-02-28T00:23:19;3.27;;;3.07;;
2850;SDS011;1433;49.976;8.342;2023-02-28T00:25:46;2.40;;;2.20;;
2850;SDS011;1433;49.976;8.342;2023-02-28T00:28:12;3.20;;;2.50;;
2850;SDS011;1433;49.976;8.342;2023-02-28T00:30:39;5.17;;;2.33;;
2850;SDS011;1433;49.976;8.342;2023-02-28T00:33:05;2.97;;;2.70;;
2850;SDS011;1433;49.976;8.342;2023-02-28T00:35:32;3.27;;;2.97;;
2850;SDS011;1433;49.976;8.342;2023-02-28T00:37:58;3.30;;;3.07;;
2850;SDS011;1433;49.976;8.342;2023-02-28T00:40:26;3.40;;;3.10;;
2850;SDS011;1433;49.976;8.342;2023-02-28T00:42:53;3.20;;;2.90;;
2850;SDS011;1433;49.976;8.342;2023-02-28T00:45:19;4.40;;;3.50;;
2850;SDS011;1433;49.976;8.342;2023-02-28T00:47:45;4.07;;;2.90;;
2850;SDS011;1433;49.976;8.342;2023-02-28T00:50:14;4.50;;;4.10;;
2850;SDS011;1433;49.976;8.342;2023-02-28T00:52:40;4.07;;;3.77;;
2850;SDS011;1433;49.976;8.342;2023-02-28T00:55:07;3.73;;;2.60;;
2850;SDS011;1433;49.976;8.342;2023-02-28T00:57:33;5.30;;;3.07;;
2850;SDS011;1433;49.976;8.342;2023-02-28T01:00:00;3.30;;;3.10;;
2850;SDS011;1433;49.976;8.342;2023-02-28T01:02:26;4.33;;;2.80;;
2850;SDS011;1433;49.976;8.342;2023-02-28T01:04:53;3.23;;;3.00;;
2850;SDS011;1433;49.976;8.342;2023-02-28T01:07:19;3.40;;;3.10;;
2850;SDS011;1433;49.976;8.342;2023-02-28T01:09:46;3.23;;;3.00;;
2850;SDS011;1433;49.976;8.342;2023-02-28T01:12:12;3.83;;;3.43;;
2850;SDS011;1433;49.976;8.342;2023-02-28T01:14:38;3.90;;;3.53;;
2850;SDS011;1433;49.976;8.342;2023-02-28T01:17:05;3.73;;;3.43;;
2850;SDS011;1433;49.976;8.342;2023-02-28T01:19:31;4.50;;;4.17;;
2850;SDS011;1433;49.976;8.342;2023-02-28T01:22:00;4.10;;;3.80;;
2850;SDS011;1433;49.976;8.342;2023-02-28T01:24:30;4.07;;;3.67;;
2850;SDS011;1433;49.976;8.342;2023-02-28T01:26:58;5.10;;;4.60;;
2850;SDS011;1433;49.976;8.342;2023-02-28T01:29:25;5.23;;;4.73;;
2850;SDS011;1433;49.976;8.342;2023-02-28T01:31:52;5.00;;;4.70;;
2850;SDS011;1433;49.976;8.342;2023-02-28T01:34:18;4.60;;;4.10;;
2850;SDS011;1433;49.976;8.342;2023-02-28T01:36:47;6.37;;;5.03;;
2850;SDS011;1433;49.976;8.342;2023-02-28T01:39:13;6.03;;;5.53;;
2850;SDS011;1433;49.976;8.342;2023-02-28T01:41:40;6.27;;;5.53;;
2850;SDS011;1433;49.976;8.342;2023-02-28T01:44:53;6.40;;;5.90;;
2850;SDS011;1433;49.976;8.342;2023-02-28T01:47:12;6.20;;;5.27;;
2850;SDS011;1433;49.976;8.342;2023-02-28T01:49:40;4.43;;;4.03;;
2850;SDS011;1433;49.976;8.342;2023-02-28T01:52:07;5.53;;;4.50;;
2850;SDS011;1433;49.976;8.342;2023-02-28T01:54:37;4.70;;;4.30;;
2850;SDS011;1433;49.976;8.342;2023-02-28T01:57:05;5.13;;;4.73;;
2850;SDS011;1433;49.976;8.342;2023-02-28T01:59:41;5.47;;;4.97;;
2850;SDS011;1433;49.976;8.342;2023-02-28T02:02:20;5.90;;;4.77;;
2850;SDS011;1433;49.976;8.342;2023-02-28T02:05:23;5.20;;;4.57;;
2850;SDS011;1433;49.976;8.342;2023-02-28T02:07:42;7.47;;;6.70;;
2850;SDS011;1433;49.976;8.342;2023-02-28T02:10:14;5.57;;;5.10;;
2850;SDS011;1433;49.976;8.342;2023-02-28T02:13:05;5.53;;;5.10;;
2850;SDS011;1433;49.976;8.342;2023-02-28T02:18:44;5.00;;;4.60;;
2850;SDS011;1433;49.976;8.342;2023-02-28T02:27:18;7.73;;;6.90;;
2850;SDS011;1433;49.976;8.342;2023-02-28T02:47:02;5.97;;;5.47;;
2850;SDS011;1433;49.976;8.342;2023-02-28T02:49:35;10.83;;;6.60;;
2850;SDS011;1433;49.976;8.342;2023-02-28T02:52:04;5.97;;;5.47;;
2850;SDS011;1433;49.976;8.342;2023-02-28T02:54:35;5.40;;;4.90;;
2850;SDS011;1433;49.976;8.342;2023-02-28T02:57:09;6.27;;;5.17;;
2850;SDS011;1433;49.976;8.342;2023-02-28T02:59:40;5.37;;;4.83;;
2850;SDS011;1433;49.976;8.342;2023-02-28T03:02:09;8.60;;;6.03;;
2850;SDS011;1433;49.976;8.342;2023-02-28T03:04:40;6.00;;;5.47;;
2850;SDS011;1433;49.976;8.342;2023-02-28T03:07:12;6.40;;;5.83;;
2850;SDS011;1433;49.976;8.342;2023-02-28T03:09:38;6.37;;;5.73;;
2850;SDS011;1433;49.976;8.342;2023-02-28T03:12:06;7.23;;;5.90;;
2850;SDS011;1433;49.976;8.342;2023-02-28T03:20:25;7.13;;;5.67;;
2850;SDS011;1433;49.976;8.342;2023-02-28T03:25:59;6.23;;;5.63;;
2850;SDS011;1433;49.976;8.342;2023-02-28T03:31:44;5.37;;;4.40;;
2850;SDS011;1433;49.976;8.342;2023-02-28T03:34:01;5.30;;;4.90;;
2850;SDS011;1433;49.976;8.342;2023-02-28T03:36:38;5.80;;;5.30;;
2850;SDS011;1433;49.976;8.342;2023-02-28T03:39:16;5.67;;;5.13;;
2850;SDS011;1433;49.976;8.342;2023-02-28T03:41:47;5.80;;;5.30;;
2850;SDS011;1433;49.976;8.342;2023-02-28T03:44:28;6.30;;;5.70;;
2850;SDS011;1433;49.976;8.342;2023-02-28T03:47:06;5.53;;;4.90;;
2850;SDS011;1433;49.976;8.342;2023-02-28T03:49:43;5.60;;;5.10;;
2850;SDS011;1433;49.976;8.342;2023-02-28T03:52:23;5.87;;;4.47;;
2850;SDS011;1433;49.976;8.342;2023-02-28T03:54:54;5.80;;;5.27;;
2850;SDS011;1433;49.976;8.342;2023-02-28T04:00:30;5.80;;;5.20;;
2850;SDS011;1433;49.976;8.342;2023-02-28T04:02:59;5.37;;;4.77;;
2850;SDS011;1433;49.976;8.342;2023-02-28T04:05:26;5.00;;;4.60;;
2850;SDS011;1433;49.976;8.342;2023-02-28T04:07:53;6.53;;;5.07;;
2850;SDS011;1433;49.976;8.342;2023-02-28T04:10:19;7.63;;;5.43;;
2850;SDS011;1433;49.976;8.342;2023-02-28T04:12:46;5.83;;;5.33;;
2850;SDS011;1433;49.976;8.342;2023-02-28T04:15:12;6.07;;;5.53;;
2850;SDS011;1433;49.976;8.342;2023-02-28T04:17:39;5.40;;;4.90;;
2850;SDS011;1433;49.976;8.342;2023-02-28T04:20:05;6.10;;;5.47;;
2850;SDS011;1433;49.976;8.342;2023-02-28T04:22:35;5.63;;;5.10;;
2850;SDS011;1433;49.976;8.342;2023-02-28T04:25:02;8.00;;;4.40;;
2850;SDS011;1433;49.976;8.342;2023-02-28T04:27:30;5.93;;;4.97;;
2850;SDS011;1433;49.976;8.342;2023-02-28T04:29:56;6.93;;;6.30;;
2850;SDS011;1433;49.976;8.342;2023-02-28T04:32:22;6.20;;;5.60;;
2850;SDS011;1433;49.976;8.342;2023-02-28T04:34:49;5.87;;;5.37;;
2850;SDS011;1433;49.976;8.342;2023-02-28T04:37:15;6.00;;;5.30;;
2850;SDS011;1433;49.976;8.342;2023-02-28T04:39:42;5.80;;;5.23;;
2850;SDS011;1433;49.976;8.342;2023-02-28T04:42:09;10.97;;;4.67;;
2850;SDS011;1433;49.976;8.342;2023-02-28T04:44:36;5.43;;;4.50;;
2850;SDS011;1433;49.976;8.342;2023-02-28T04:47:03;5.20;;;4.80;;
2850;SDS011;1433;49.976;8.342;2023-02-28T04:49:29;5.73;;;5.03;;
2850;SDS011;1433;49.976;8.342;2023-02-28T04:51:55;5.77;;;5.30;;
2850;SDS011;1433;49.976;8.342;2023-02-28T04:54:22;6.43;;;5.73;;
2850;SDS011;1433;49.976;8.342;2023-02-28T04:56:49;5.53;;;5.03;;
2850;SDS011;1433;49.976;8.342;2023-02-28T04:59:15;4.73;;;4.33;;
2850;SDS011;1433;49.976;8.342;2023-02-28T05:01:45;5.80;;;5.20;;
2850;SDS011;1433;49.976;8.342;2023-02-28T05:04:15;7.40;;;5.93;;
2850;SDS011;1433;49.976;8.342;2023-02-28T05:06:42;4.57;;;4.20;;
2850;SDS011;1433;49.976;8.342;2023-02-28T05:09:08;5.30;;;4.90;;
2850;SDS011;1433;49.976;8.342;2023-02-28T05:11:36;5.90;;;4.83;;
2850;SDS011;1433;49.976;8.342;2023-02-28T05:14:05;4.80;;;4.40;;
2850;SDS011;1433;49.976;8.342;2023-02-28T05:16:38;3.40;;;3.10;;
2850;SDS011;1433;49.976;8.342;2023-02-28T05:19:04;5.40;;;4.90;;
2850;SDS011;1433;49.976;8.342;2023-02-28T05:21:38;5.90;;;5.30;;
2850;SDS011;1433;49.976;8.342;2023-02-28T05:24:10;4.80;;;4.50;;
2850;SDS011;1433;49.976;8.342;2023-02-28T05:26:42;5.43;;;4.93;;
2850;SDS011;1433;49.976;8.342;2023-02-28T05:29:08;5.20;;;4.73;;
2850;SDS011;1433;49.976;8.342;2023-02-28T05:31:36;8.90;;;5.60;;
2850;SDS011;1433;49.976;8.342;2023-02-28T05:34:02;5.80;;;5.20;;
2850;SDS011;1433;49.976;8.342;2023-02-28T05:36:29;5.53;;;5.00;;
2850;SDS011;1433;49.976;8.342;2023-02-28T05:38:56;5.07;;;4.57;;
2850;SDS011;1433;49.976;8.342;2023-02-28T05:41:22;5.93;;;5.40;;
2850;SDS011;1433;49.976;8.342;2023-02-28T05:43:49;4.93;;;4.53;;
2850;SDS011;1433;49.976;8.342;2023-02-28T05:46:15;6.20;;;4.87;;
2850;SDS011;1433;49.976;8.342;2023-02-28T05:48:42;3.87;;;3.57;;
2850;SDS011;1433;49.976;8.342;2023-02-28T05:51:13;5.53;;;5.03;;
2850;SDS011;1433;49.976;8.342;2023-02-28T05:53:39;7.63;;;5.33;;
2850;SDS011;1433;49.976;8.342;2023-02-28T05:56:06;7.20;;;5.00;;
2850;SDS011;1433;49.976;8.342;2023-02-28T05:58:32;6.30;;;5.20;;
2850;SDS011;1433;49.976;8.342;2023-02-28T06:01:01;5.17;;;4.70;;
2850;SDS011;1433;49.976;8.342;2023-02-28T06:03:49;5.23;;;4.73;;
2850;SDS011;1433;49.976;8.342;2023-02-28T06:06:15;5.70;;;5.13;;
2850;SDS011;1433;49.976;8.342;2023-02-28T06:08:42;5.13;;;3.80;;
2850;SDS011;1433;49.976;8.342;2023-02-28T06:11:09;7.07;;;4.80;;
2850;SDS011;1433;49.976;8.342;2023-02-28T06:13:35;5.10;;;4.70;;
2850;SDS011;1433;49.976;8.342;2023-02-28T06:16:02;4.53;;;4.13;;
2850;SDS011;1433;49.976;8.342;2023-02-28T06:18:29;6.50;;;5.90;;
2850;SDS011;1433;49.976;8.342;2023-02-28T06:20:55;4.73;;;4.33;;
2850;SDS011;1433;49.976;8.342;2023-02-28T06:23:21;5.30;;;4.70;;
2850;SDS011;1433;49.976;8.342;2023-02-28T06:25:48;7.77;;;5.43;;
2850;SDS011;1433;49.976;8.342;2023-02-28T06:28:15;5.40;;;4.90;;
2850;SDS011;1433;49.976;8.342;2023-02-28T06:30:42;5.33;;;4.83;;
2850;SDS011;1433;49.976;8.342;2023-02-28T06:33:08;5.03;;;4.53;;
2850;SDS011;1433;49.976;8.342;2023-02-28T06:35:34;5.23;;;4.73;;
2850;SDS011;1433;49.976;8.342;2023-02-28T06:38:00;4.73;;;4.30;;
2850;SDS011;1433;49.976;8.342;2023-02-28T06:40:27;5.60;;;5.00;;
2850;SDS011;1433;49.976;8.342;2023-02-28T06:42:53;8.90;;;5.03;;
2850;SDS011;1433;49.976;8.342;2023-02-28T06:45:19;5.23;;;4.73;;
2850;SDS011;1433;49.976;8.342;2023-02-28T06:47:46;5.80;;;5.30;;
2850;SDS011;1433;49.976;8.342;2023-02-28T06:50:14;5.90;;;5.30;;
2850;SDS011;1433;49.976;8.342;2023-02-28T06:52:40;5.23;;;4.73;;
2850;SDS011;1433;49.976;8.342;2023-02-28T06:55:07;5.90;;;5.40;;
2850;SDS011;1433;49.976;8.342;2023-02-28T06:57:34;4.23;;;3.93;;
2850;SDS011;1433;49.976;8.342;2023-02-28T07:00:04;11.10;;;5.10;;
2850;SDS011;1433;49.976;8.342;2023-02-28T07:02:34;4.53;;;4.10;;
2850;SDS011;1433;49.976;8.342;2023-02-28T07:05:02;6.83;;;4.63;;
2850;SDS011;1433;49.976;8.342;2023-02-28T07:07:32;4.80;;;4.13;;
2850;SDS011;1433;49.976;8.342;2023-02-28T07:09:58;4.93;;;4.30;;
2850;SDS011;1433;49.976;8.342;2023-02-28T07:12:25;5.63;;;4.70;;
2850;SDS011;1433;49.976;8.342;2023-02-28T07:14:51;5.97;;;5.13;;
2850;SDS011;1433;49.976;8.342;2023-02-28T07:17:17;5.90;;;4.53;;
2850;SDS011;1433;49.976;8.342;2023-02-28T07:19:44;6.63;;;4.97;;
2850;SDS011;1433;49.976;8.342;2023-02-28T07:22:10;5.10;;;4.70;;
2850;SDS011;1433;49.976;8.342;2023-02-28T07:24:36;8.60;;;5.57;;
2850;SDS011;1433;49.976;8.342;2023-02-28T07:27:03;6.10;;;4.87;;
2850;SDS011;1433;49.976;8.342;2023-02-28T07:29:30;5.57;;;4.70;;
2850;SDS011;1433;49.976;8.342;2023-02-28T07:31:56;6.17;;;5.37;;
2850;SDS011;1433;49.976;8.342;2023-02-28T07:34:23;4.73;;;4.33;;
2850;SDS011;1433;49.976;8.342;2023-02-28T07:36:52;8.93;;;5.27;;
2850;SDS011;1433;49.976;8.342;2023-02-28T07:39:21;5.73;;;5.13;;
2850;SDS011;1433;49.976;8.342;2023-02-28T07:41:48;5.30;;;4.80;;
2850;SDS011;1433;49.976;8.342;2023-02-28T07:44:14;12.33;;;6.50;;
2850;SDS011;1433;49.976;8.342;2023-02-28T07:46:44;8.37;;;6.17;;
2850;SDS011;1433;49.976;8.342;2023-02-28T07:49:14;6.10;;;5.30;;
2850;SDS011;1433;49.976;8.342;2023-02-28T07:51:40;6.53;;;5.30;;
2850;SDS011;1433;49.976;8.342;2023-02-28T07:54:07;6.00;;;5.40;;
2850;SDS011;1433;49.976;8.342;2023-02-28T07:56:33;6.40;;;5.83;;
2850;SDS011;1433;49.976;8.342;2023-02-28T07:58:59;5.50;;;5.03;;
2850;SDS011;1433;49.976;8.342;2023-02-28T08:01:27;5.63;;;5.00;;
2850;SDS011;1433;49.976;8.342;2023-02-28T08:03:53;6.60;;;5.20;;
2850;SDS011;1433;49.976;8.342;2023-02-28T08:06:22;7.53;;;5.07;;
2850;SDS011;1433;49.976;8.342;2023-02-28T08:08:50;4.67;;;4.27;;
2850;SDS011;1433;49.976;8.342;2023-02-28T08:11:17;5.67;;;4.33;;
2850;SDS011;1433;49.976;8.342;2023-02-28T08:13:44;6.50;;;5.80;;
2850;SDS011;1433;49.976;8.342;2023-02-28T08:16:12;4.70;;;4.30;;
2850;SDS011;1433;49.976;8.342;2023-02-28T08:18:42;6.73;;;4.63;;
2850;SDS011;1433;49.976;8.342;2023-02-28T08:21:09;6.00;;;5.40;;
2850;SDS011;1433;49.976;8.342;2023-02-28T08:23:36;8.63;;;5.20;;
2850;SDS011;1433;49.976;8.342;2023-02-28T08:26:03;5.03;;;4.63;;
2850;SDS011;1433;49.976;8.342;2023-02-28T08:28:30;6.33;;;4.70;;
2850;SDS011;1433;49.976;8.342;2023-02-28T08:30:57;9.20;;;5.70;;
2850;SDS011;1433;49.976;8.342;2023-02-28T08:33:24;6.60;;;4.87;;
2850;SDS011;1433;49.976;8.342;2023-02-28T08:35:53;5.63;;;5.10;;
2850;SDS011;1433;49.976;8.342;2023-02-28T08:38:22;5.70;;;4.60;;
2850;SDS011;1433;49.976;8.342;2023-02-28T08:40:49;8.13;;;4.80;;
2850;SDS011;1433;49.976;8.342;2023-02-28T08:43:15;9.80;;;6.63;;
2850;SDS011;1433;49.976;8.342;2023-02-28T08:45:42;5.30;;;4.20;;
2850;SDS011;1433;49.976;8.342;2023-02-28T08:48:08;6.33;;;4.80;;
2850;SDS011;1433;49.976;8.342;2023-02-28T08:50:34;5.40;;;5.00;;
2850;SDS011;1433;49.976;8.342;2023-02-28T08:53:00;5.50;;;4.67;;
2850;SDS011;1433;49.976;8.342;2023-02-28T08:55:31;5.07;;;4.67;;
2850;SDS011;1433;49.976;8.342;2023-02-28T08:58:03;4.90;;;4.47;;
2850;SDS011;1433;49.976;8.342;2023-02-28T09:00:29;5.60;;;4.30;;
2850;SDS011;1433;49.976;8.342;2023-02-28T09:02:55;4.50;;;4.10;;
2850;SDS011;1433;49.976;8.342;2023-02-28T09:05:24;5.30;;;4.73;;
2850;SDS011;1433;49.976;8.342;2023-02-28T09:07:50;4.67;;;4.27;;
2850;SDS011;1433;49.976;8.342;2023-02-28T09:10:17;7.07;;;4.40;;
2850;SDS011;1433;49.976;8.342;2023-02-28T09:12:43;4.40;;;4.00;;
2850;SDS011;1433;49.976;8.342;2023-02-28T09:15:11;11.50;;;3.87;;
2850;SDS011;1433;49.976;8.342;2023-02-28T09:17:37;5.53;;;4.97;;
2850;SDS011;1433;49.976;8.342;2023-02-28T09:20:04;7.03;;;6.40;;
2850;SDS011;1433;49.976;8.342;2023-02-28T09:22:31;5.20;;;4.67;;
2850;SDS011;1433;49.976;8.342;2023-02-28T09:24:58;4.83;;;4.30;;
2850;SDS011;1433;49.976;8.342;2023-02-28T09:27:24;5.40;;;4.43;;
2850;SDS011;1433;49.976;8.342;2023-02-28T09:29:51;5.17;;;4.30;;
2850;SDS011;1433;49.976;8.342;2023-02-28T09:32:17;4.80;;;4.50;;
2850;SDS011;1433;49.976;8.342;2023-02-28T09:34:44;4.90;;;4.50;;
2850;SDS011;1433;49.976;8.342;2023-02-28T09:37:10;4.43;;;4.00;;
2850;SDS011;1433;49.976;8.342;2023-02-28T09:39:36;4.23;;;3.83;;
2850;SDS011;1433;49.976;8.342;2023-02-28T09:42:11;5.17;;;4.23;;
2850;SDS011;1433;49.976;8.342;2023-02-28T09:44:37;4.60;;;4.30;;
2850;SDS011;1433;49.976;8.342;2023-02-28T09:47:16;3.90;;;3.70;;
2850;SDS011;1433;49.976;8.342;2023-02-28T09:49:51;4.30;;;3.87;;
2850;SDS011;1433;49.976;8.342;2023-02-28T09:52:21;4.37;;;3.97;;
2850;SDS011;1433;49.976;8.342;2023-02-28T09:54:52;7.80;;;4.47;;
2850;SDS011;1433;49.976;8.342;2023-02-28T09:57:27;5.27;;;4.77;;
2850;SDS011;1433;49.976;8.342;2023-02-28T10:06:06;7.60;;;4.33;;
2850;SDS011;1433;49.976;8.342;2023-02-28T10:08:42;7.50;;;4.90;;
2850;SDS011;1433;49.976;8.342;2023-02-28T10:11:18;6.07;;;4.87;;
2850;SDS011;1433;49.976;8.342;2023-02-28T10:13:56;4.67;;;4.07;;
2850;SDS011;1433;49.976;8.342;2023-02-28T10:16:40;4.47;;;4.17;;
2850;SDS011;1433;49.976;8.342;2023-02-28T10:19:16;10.07;;;4.50;;
2850;SDS011;1433;49.976;8.342;2023-02-28T10:22:14;4.73;;;4.33;;
2850;SDS011;1433;49.976;8.342;2023-02-28T10:24:59;7.80;;;4.60;;
2850;SDS011;1433;49.976;8.342;2023-02-28T10:27:32;4.90;;;4.40;;
2850;SDS011;1433;49.976;8.342;2023-02-28T10:30:00;5.70;;;4.30;;
2850;SDS011;1433;49.976;8.342;2023-02-28T10:32:32;4.80;;;4.30;;
2850;SDS011;1433;49.976;8.342;2023-02-28T10:35:03;4.73;;;4.33;;
2850;SDS011;1433;49.976;8.342;2023-02-28T10:37:48;7.50;;;5.00;;
2850;SDS011;1433;49.976;8.342;2023-02-28T10:43:03;5.77;;;5.17;;
2850;SDS011;1433;49.976;8.342;2023-02-28T10:48:41;5.57;;;5.07;;
2850;SDS011;1433;49.976;8.342;2023-02-28T10:51:07;10.10;;;4.87;;
2850;SDS011;1433;49.976;8.342;2023-02-28T10:53:44;5.63;;;4.90;;
2850;SDS011;1433;49.976;8.342;2023-02-28T10:56:24;5.07;;;4.67;;
2850;SDS011;1433;49.976;8.342;2023-02-28T11:01:55;5.57;;;4.93;;
2850;SDS011;1433;49.976;8.342;2023-02-28T11:07:10;5.50;;;5.00;;
2850;SDS011;1433;49.976;8.342;2023-02-28T11:09:50;7.07;;;5.00;;
2850;SDS011;1433;49.976;8.342;2023-02-28T11:12:20;6.23;;;5.17;;
2850;SDS011;1433;49.976;8.342;2023-02-28T11:14:52;5.60;;;4.53;;
2850;SDS011;1433;49.976;8.342;2023-02-28T11:17:34;5.60;;;4.23;;
2850;SDS011;1433;49.976;8.342;2023-02-28T11:19:57;4.77;;;4.27;;
2850;SDS011;1433;49.976;8.342;2023-02-28T11:22:29;6.07;;;5.37;;
2850;SDS011;1433;49.976;8.342;2023-02-28T11:25:02;4.33;;;4.03;;
2850;SDS011;1433;49.976;8.342;2023-02-28T11:27:42;5.83;;;5.23;;
2850;SDS011;1433;49.976;8.342;2023-02-28T11:30:26;6.63;;;5.70;;
2850;SDS011;1433;49.976;8.342;2023-02-28T11:35:50;8.53;;;4.63;;
2850;SDS011;1433;49.976;8.342;2023-02-28T11:38:18;11.33;;;5.30;;
2850;SDS011;1433;49.976;8.342;2023-02-28T11:40:50;5.13;;;4.73;;
2850;SDS011;1433;49.976;8.342;2023-02-28T11:52:20;5.30;;;4.80;;
2850;SDS011;1433;49.976;8.342;2023-02-28T11:58:09;5.83;;;5.43;;
2850;SDS011;1433;49.976;8.342;2023-02-28T12:07:11;4.17;;;3.87;;
2850;SDS011;1433;49.976;8.342;2023-02-28T12:24:26;6.60;;;5.70;;
2850;SDS011;1433;49.976;8.342;2023-02-28T12:27:13;10.20;;;5.10;;
2850;SDS011;1433;49.976;8.342;2023-02-28T12:29:46;6.33;;;4.50;;
2850;SDS011;1433;49.976;8.342;2023-02-28T12:35:02;6.67;;;5.97;;
2850;SDS011;1433;49.976;8.342;2023-02-28T12:37:37;5.60;;;5.10;;
2850;SDS011;1433;49.976;8.342;2023-02-28T12:40:15;6.13;;;5.63;;
2850;SDS011;1433;49.976;8.342;2023-02-28T12:42:47;6.43;;;5.93;;
2850;SDS011;1433;49.976;8.342;2023-02-28T12:45:27;5.20;;;4.80;;
2850;SDS011;1433;49.976;8.342;2023-02-28T12:48:24;6.03;;;5.30;;
2850;SDS011;1433;49.976;8.342;2023-02-28T12:51:12;6.70;;;5.20;;
2850;SDS011;1433;49.976;8.342;2023-02-28T12:56:47;5.40;;;5.00;;
2850;SDS011;1433;49.976;8.342;2023-02-28T12:59:47;5.33;;;4.87;;
2850;SDS011;1433;49.976;8.342;2023-02-28T13:11:00;7.07;;;5.80;;
2850;SDS011;1433;49.976;8.342;2023-02-28T13:13:26;5.67;;;5.17;;
2850;SDS011;1433;49.976;8.342;2023-02-28T13:16:06;5.93;;;5.43;;
2850;SDS011;1433;49.976;8.342;2023-02-28T13:21:23;6.30;;;5.70;;
2850;SDS011;1433;49.976;8.342;2023-02-28T13:32:19;7.00;;;6.40;;
2850;SDS011;1433;49.976;8.342;2023-02-28T13:39:52;6.70;;;6.10;;
2850;SDS011;1433;49.976;8.342;2023-02-28T13:47:36;7.07;;;6.57;;
2850;SDS011;1433;49.976;8.342;2023-02-28T13:53:01;7.17;;;6.47;;
2850;SDS011;1433;49.976;8.342;2023-02-28T13:55:45;7.47;;;6.70;;
2850;SDS011;1433;49.976;8.342;2023-02-28T14:06:52;6.80;;;6.27;;
2850;SDS011;1433;49.976;8.342;2023-02-28T14:09:24;6.77;;;6.27;;
2850;SDS011;1433;49.976;8.342;2023-02-28T14:18:24;7.00;;;6.30;;
2850;SDS011;1433;49.976;8.342;2023-02-28T14:36:22;7.13;;;6.43;;
2850;SDS011;1433;49.976;8.342;2023-02-28T14:39:15;7.50;;;6.80;;
2850;SDS011;1433;49.976;8.342;2023-02-28T14:41:49;7.90;;;7.30;;
2850;SDS011;1433;49.976;8.342;2023-02-28T14:47:02;7.70;;;7.07;;
2850;SDS011;1433;49.976;8.342;2023-02-28T14:49:36;7.57;;;6.87;;
2850;SDS011;1433;49.976;8.342;2023-02-28T14:54:51;7.97;;;7.17;;
2850;SDS011;1433;49.976;8.342;2023-02-28T14:57:30;8.10;;;7.40;;
2850;SDS011;1433;49.976;8.342;2023-02-28T14:59:58;7.57;;;6.80;;
2850;SDS011;1433;49.976;8.342;2023-02-28T15:02:44;6.63;;;6.13;;
2850;SDS011;1433;49.976;8.342;2023-02-28T15:08:04;8.20;;;7.50;;
2850;SDS011;1433;49.976;8.342;2023-02-28T15:10:37;8.43;;;7.57;;
2850;SDS011;1433;49.976;8.342;2023-02-28T15:13:11;8.00;;;7.30;;
2850;SDS011;1433;49.976;8.342;2023-02-28T15:21:05;10.63;;;6.47;;
2850;SDS011;1433;49.976;8.342;2023-02-28T15:23:35;8.60;;;7.80;;
2850;SDS011;1433;49.976;8.342;2023-02-28T15:26:03;7.40;;;6.70;;
2850;SDS011;1433;49.976;8.342;2023-02-28T15:28:30;8.57;;;7.87;;
2850;SDS011;1433;49.976;8.342;2023-02-28T15:31:01;7.90;;;7.23;;
2850;SDS011;1433;49.976;8.342;2023-02-28T15:33:30;7.40;;;6.80;;
2850;SDS011;1433;49.976;8.342;2023-02-28T15:36:06;8.30;;;7.60;;
2850;SDS011;1433;49.976;8.342;2023-02-28T15:38:42;9.80;;;7.07;;
2850;SDS011;1433;49.976;8.342;2023-02-28T15:41:21;7.43;;;6.70;;
2850;SDS011;1433;49.976;8.342;2023-02-28T15:44:16;9.13;;;8.20;;
2850;SDS011;1433;49.976;8.342;2023-02-28T15:47:04;8.47;;;7.77;;
2850;SDS011;1433;49.976;8.342;2023-02-28T15:49:49;6.57;;;6.07;;
2850;SDS011;1433;49.976;8.342;2023-02-28T15:52:24;7.40;;;6.80;;
2850;SDS011;1433;49.976;8.342;2023-02-28T15:54:57;9.30;;;8.50;;
2850;SDS011;1433;49.976;8.342;2023-02-28T15:57:24;8.40;;;7.70;;
2850;SDS011;1433;49.976;8.342;2023-02-28T15:59:55;7.67;;;6.93;;
2850;SDS011;1433;49.976;8.342;2023-02-28T16:02:34;9.53;;;8.37;;
2850;SDS011;1433;49.976;8.342;2023-02-28T16:05:00;7.53;;;6.93;;
2850;SDS011;1433;49.976;8.342;2023-02-28T16:07:40;6.90;;;6.30;;
2850;SDS011;1433;49.976;8.342;2023-02-28T16:10:10;8.27;;;7.50;;
2850;SDS011;1433;49.976;8.342;2023-02-28T16:12:40;8.00;;;7.40;;
2850;SDS011;1433;49.976;8.342;2023-02-28T16:15:14;9.33;;;8.33;;
2850;SDS011;1433;49.976;8.342;2023-02-28T16:17:47;8.00;;;7.37;;
2850;SDS011;1433;49.976;8.342;2023-02-28T16:20:18;8.17;;;7.47;;
2850;SDS011;1433;49.976;8.342;2023-02-28T16:22:53;8.17;;;7.40;;
2850;SDS011;1433;49.976;8.342;2023-02-28T16:25:22;8.00;;;7.33;;
2850;SDS011;1433;49.976;8.342;2023-02-28T16:28:01;7.73;;;7.03;;
2850;SDS011;1433;49.976;8.342;2023-02-28T16:30:28;7.53;;;6.93;;
2850;SDS011;1433;49.976;8.342;2023-02-28T16:32:58;6.87;;;6.27;;
2850;SDS011;1433;49.976;8.342;2023-02-28T16:35:25;10.43;;;8.03;;
2850;SDS011;1433;49.976;8.342;2023-02-28T16:37:51;8.23;;;7.43;;
2850;SDS011;1433;49.976;8.342;2023-02-28T16:40:19;8.13;;;7.43;;
2850;SDS011;1433;49.976;8.342;2023-02-28T16:42:49;8.60;;;7.80;;
2850;SDS011;1433;49.976;8.342;2023-02-28T16:45:20;8.83;;;8.13;;
2850;SDS011;1433;49.976;8.342;2023-02-28T16:47:51;7.97;;;7.17;;
2850;SDS011;1433;49.976;8.342;2023-02-28T16:52:53;8.40;;;7.43;;
2850;SDS011;1433;49.976;8.342;2023-02-28T16:55:22;8.37;;;7.70;;
2850;SDS011;1433;49.976;8.342;2023-02-28T16:57:56;9.20;;;8.30;;
2850;SDS011;1433;49.976;8.342;2023-02-28T17:00:22;7.97;;;7.20;;
2850;SDS011;1433;49.976;8.342;2023-02-28T17:02:49;7.67;;;6.97;;
2850;SDS011;1433;49.976;8.342;2023-02-28T17:05:16;7.33;;;6.60;;
2850;SDS011;1433;49.976;8.342;2023-02-28T17:07:44;10.10;;;7.90;;
2850;SDS011;1433;49.976;8.342;2023-02-28T17:10:16;7.47;;;6.87;;
2850;SDS011;1433;49.976;8.342;2023-02-28T17:12:46;8.10;;;7.30;;
2850;SDS011;1433;49.976;8.342;2023-02-28T17:15:13;8.70;;;7.93;;
2850;SDS011;1433;49.976;8.342;2023-02-28T17:17:42;8.73;;;7.60;;
2850;SDS011;1433;49.976;8.342;2023-02-28T17:20:14;10.30;;;9.40;;
2850;SDS011;1433;49.976;8.342;2023-02-28T17:22:41;9.50;;;8.60;;
2850;SDS011;1433;49.976;8.342;2023-02-28T17:25:08;15.50;;;13.90;;
2850;SDS011;1433;49.976;8.342;2023-02-28T17:27:37;15.70;;;14.10;;
2850;SDS011;1433;49.976;8.342;2023-02-28T17:30:25;11.73;;;10.60;;
2850;SDS011;1433;49.976;8.342;2023-02-28T17:32:44;9.37;;;8.33;;
2850;SDS011;1433;49.976;8.342;2023-02-28T17:35:10;11.73;;;8.20;;
2850;SDS011;1433;49.976;8.342;2023-02-28T17:37:38;11.33;;;9.23;;
2850;SDS011;1433;49.976;8.342;2023-02-28T17:40:05;10.47;;;9.50;;
2850;SDS011;1433;49.976;8.342;2023-02-28T17:42:37;11.33;;;8.70;;
2850;SDS011;1433;49.976;8.342;2023-02-28T17:45:03;9.40;;;8.37;;
2850;SDS011;1433;49.976;8.342;2023-02-28T17:47:30;11.67;;;10.27;;
2850;SDS011;1433;49.976;8.342;2023-02-28T17:49:56;12.03;;;9.73;;
2850;SDS011;1433;49.976;8.342;2023-02-28T17:52:23;12.40;;;9.73;;
2850;SDS011;1433;49.976;8.342;2023-02-28T17:54:49;12.87;;;9.67;;
2850;SDS011;1433;49.976;8.342;2023-02-28T17:57:15;10.37;;;9.40;;
2850;SDS011;1433;49.976;8.342;2023-02-28T17:59:42;9.90;;;9.00;;
2850;SDS011;1433;49.976;8.342;2023-02-28T18:02:11;9.80;;;8.80;;
2850;SDS011;1433;49.976;8.342;2023-02-28T18:04:39;9.77;;;8.73;;
2850;SDS011;1433;49.976;8.342;2023-02-28T18:07:05;10.40;;;9.50;;
2850;SDS011;1433;49.976;8.342;2023-02-28T18:09:32;10.13;;;9.07;;
2850;SDS011;1433;49.976;8.342;2023-02-28T18:11:59;9.50;;;8.60;;
2850;SDS011;1433;49.976;8.342;2023-02-28T18:14:25;12.07;;;10.00;;
2850;SDS011;1433;49.976;8.342;2023-02-28T18:16:52;9.13;;;8.33;;
2850;SDS011;1433;49.976;8.342;2023-02-28T18:19:20;10.67;;;9.57;;
2850;SDS011;1433;49.976;8.342;2023-02-28T18:21:48;10.00;;;9.10;;
2850;SDS011;1433;49.976;8.342;2023-02-28T18:24:17;9.63;;;8.63;;
2850;SDS011;1433;49.976;8.342;2023-02-28T18:26:46;9.70;;;8.80;;
2850;SDS011;1433;49.976;8.342;2023-02-28T18:29:15;9.73;;;8.60;;
2850;SDS011;1433;49.976;8.342;2023-02-28T18:31:47;11.27;;;8.67;;
2850;SDS011;1433;49.976;8.342;2023-02-28T18:34:14;8.23;;;7.53;;